sensor_id;sensor_type;location;lat;lon;timestamp;temperature;humidity
20750;DHT22;10535;50.664;4.564;2023-05-07T00:00:28;14.70;99.90
20750;DHT22;10535;50.664;4.564;2023-05-07T00:02:53;14.80;99.90
20750;DHT22;10535;50.664;4.564;2023-05-07T00:05:21;14.70;99.90
20750;DHT22;10535;50.664;4.564;2023-05-07T00:07:47;14.70;99.90
20750;DHT22;10535;50.664;4.564;2023-05-07T00:10:14;14.60;99.90
20750;DHT22;10535;50.664;4.564;2023-05-07T00:12:40;14.70;99.90
20750;DHT22;10535;50.664;4.564;2023-05-07T00:15:11;14.70;99.90
20750;DHT22;10535;50.664;4.564;2023-05-07T00:17:37;14.80;99.90
20750;DHT22;10535;50.664;4.564;2023-05-07T00:20:04;15.00;99.90
20750;DHT22;10535;50.664;4.564;2023-05-07T00:22:30;14.90;99.90
20750;DHT22;10535;50.664;4.564;2023-05-07T00:24:58;14.80;99.90
20750;DHT22;10535;50.664;4.564;2023-05-07T00:27:24;14.70;99.90
20750;DHT22;10535;50.664;4.564;2023-05-07T00:29:51;14.70;99.90
20750;DHT22;10535;50.664;4.564;2023-05-07T00:32:17;14.70;99.90
20750;DHT22;10535;50.664;4.564;2023-05-07T00:34:44;14.80;99.90
20750;DHT22;10535;50.664;4.564;2023-05-07T00:37:09;14.80;99.90
20750;DHT22;10535;50.664;4.564;2023-05-07T00:39:38;14.70;99.90
20750;DHT22;10535;50.664;4.564;2023-05-07T00:42:04;14.80;99.90
20750;DHT22;10535;50.664;4.564;2023-05-07T00:44:30;14.80;99.90
20750;DHT22;10535;50.664;4.564;2023-05-07T00:47:01;14.80;99.90
20750;DHT22;10535;50.664;4.564;2023-05-07T00:49:37;14.80;99.90
20750;DHT22;10535;50.664;4.564;2023-05-07T00:52:03;14.70;99.90
20750;DHT22;10535;50.664;4.564;2023-05-07T00:54:29;14.70;99.90
20750;DHT22;10535;50.664;4.564;2023-05-07T00:56:54;14.70;99.90
20750;DHT22;10535;50.664;4.564;2023-05-07T00:59:20;14.70;99.90
20750;DHT22;10535;50.664;4.564;2023-05-07T01:01:46;14.80;99.90
20750;DHT22;10535;50.664;4.564;2023-05-07T01:04:12;14.90;99.90
20750;DHT22;10535;50.664;4.564;2023-05-07T01:06:38;14.90;99.90
20750;DHT22;10535;50.664;4.564;2023-05-07T01:09:05;14.90;99.90
20750;DHT22;10535;50.664;4.564;2023-05-07T01:11:31;14.80;99.90
20750;DHT22;10535;50.664;4.564;2023-05-07T01:13:59;14.70;99.90
20750;DHT22;10535;50.664;4.564;2023-05-07T01:16:25;14.60;99.90
20750;DHT22;10535;50.664;4.564;2023-05-07T01:18:52;14.60;99.90
20750;DHT22;10535;50.664;4.564;2023-05-07T01:21:18;14.60;99.90
20750;DHT22;10535;50.664;4.564;2023-05-07T01:23:44;14.60;99.90
20750;DHT22;10535;50.664;4.564;2023-05-07T01:26:10;14.60;99.90
20750;DHT22;10535;50.664;4.564;2023-05-07T01:28:36;14.60;99.90
20750;DHT22;10535;50.664;4.564;2023-05-07T01:31:03;14.70;99.90
20750;DHT22;10535;50.664;4.564;2023-05-07T01:33:33;14.70;99.90
20750;DHT22;10535;50.664;4.564;2023-05-07T01:36:03;14.60;99.90
20750;DHT22;10535;50.664;4.564;2023-05-07T01:38:32;14.50;99.90
20750;DHT22;10535;50.664;4.564;2023-05-07T01:40:58;14.60;99.90
20750;DHT22;10535;50.664;4.564;2023-05-07T01:43:25;14.60;99.90
20750;DHT22;10535;50.664;4.564;2023-05-07T01:45:51;14.50;99.90
20750;DHT22;10535;50.664;4.564;2023-05-07T01:48:18;14.50;99.90
20750;DHT22;10535;50.664;4.564;2023-05-07T01:50:44;14.60;99.90
20750;DHT22;10535;50.664;4.564;2023-05-07T01:53:10;14.50;99.90
20750;DHT22;10535;50.664;4.564;2023-05-07T01:55:36;14.50;99.90
20750;DHT22;10535;50.664;4.564;2023-05-07T01:58:05;14.50;99.90
20750;DHT22;10535;50.664;4.564;2023-05-07T02:00:31;14.60;99.90
20750;DHT22;10535;50.664;4.564;2023-05-07T02:02:57;14.70;99.90
20750;DHT22;10535;50.664;4.564;2023-05-07T02:05:23;14.70;99.90
20750;DHT22;10535;50.664;4.564;2023-05-07T02:07:49;14.70;99.90
20750;DHT22;10535;50.664;4.564;2023-05-07T02:10:15;14.60;99.90
20750;DHT22;10535;50.664;4.564;2023-05-07T02:12:41;14.60;99.90
20750;DHT22;10535;50.664;4.564;2023-05-07T02:15:09;14.60;99.90
20750;DHT22;10535;50.664;4.564;2023-05-07T02:17:39;14.50;99.90
20750;DHT22;10535;50.664;4.564;2023-05-07T02:20:06;14.40;99.90
20750;DHT22;10535;50.664;4.564;2023-05-07T02:22:39;14.40;99.90
20750;DHT22;10535;50.664;4.564;2023-05-07T02:25:06;14.40;99.90
20750;DHT22;10535;50.664;4.564;2023-05-07T02:27:31;14.40;99.90
20750;DHT22;10535;50.664;4.564;2023-05-07T02:29:58;14.40;99.90
20750;DHT22;10535;50.664;4.564;2023-05-07T02:32:24;14.40;99.90
20750;DHT22;10535;50.664;4.564;2023-05-07T02:34:50;14.40;99.90
20750;DHT22;10535;50.664;4.564;2023-05-07T02:37:16;14.40;99.90
20750;DHT22;10535;50.664;4.564;2023-05-07T02:39:45;14.30;99.90
20750;DHT22;10535;50.664;4.564;2023-05-07T02:42:14;14.30;99.90
20750;DHT22;10535;50.664;4.564;2023-05-07T02:44:43;14.20;99.90
20750;DHT22;10535;50.664;4.564;2023-05-07T02:47:08;14.10;99.90
20750;DHT22;10535;50.664;4.564;2023-05-07T02:49:56;14.10;99.90
20750;DHT22;10535;50.664;4.564;2023-05-07T02:52:33;14.10;99.90
20750;DHT22;10535;50.664;4.564;2023-05-07T02:55:28;14.00;99.90
20750;DHT22;10535;50.664;4.564;2023-05-07T02:58:04;14.10;99.90
20750;DHT22;10535;50.664;4.564;2023-05-07T03:00:36;14.00;99.90
20750;DHT22;10535;50.664;4.564;2023-05-07T03:03:23;14.00;99.90
20750;DHT22;10535;50.664;4.564;2023-05-07T03:05:51;13.80;99.90
20750;DHT22;10535;50.664;4.564;2023-05-07T03:08:22;14.00;99.90
20750;DHT22;10535;50.664;4.564;2023-05-07T03:10:48;14.00;99.90
20750;DHT22;10535;50.664;4.564;2023-05-07T03:13:14;14.00;99.90
20750;DHT22;10535;50.664;4.564;2023-05-07T03:15:40;14.00;99.90
20750;DHT22;10535;50.664;4.564;2023-05-07T03:18:06;13.90;99.90
20750;DHT22;10535;50.664;4.564;2023-05-07T03:20:31;14.00;99.90
20750;DHT22;10535;50.664;4.564;2023-05-07T03:22:57;14.00;99.90
20750;DHT22;10535;50.664;4.564;2023-05-07T03:25:24;14.00;99.90
20750;DHT22;10535;50.664;4.564;2023-05-07T03:27:49;14.00;99.90
20750;DHT22;10535;50.664;4.564;2023-05-07T03:30:15;13.90;99.90
20750;DHT22;10535;50.664;4.564;2023-05-07T03:32:41;13.80;99.90
20750;DHT22;10535;50.664;4.564;2023-05-07T03:35:07;13.80;99.90
20750;DHT22;10535;50.664;4.564;2023-05-07T03:37:33;13.90;99.90
20750;DHT22;10535;50.664;4.564;2023-05-07T03:39:58;14.00;99.90
20750;DHT22;10535;50.664;4.564;2023-05-07T03:42:24;14.00;99.90
20750;DHT22;10535;50.664;4.564;2023-05-07T03:44:50;14.00;99.90
20750;DHT22;10535;50.664;4.564;2023-05-07T03:47:15;14.10;99.90
20750;DHT22;10535;50.664;4.564;2023-05-07T03:49:41;14.20;99.90
20750;DHT22;10535;50.664;4.564;2023-05-07T03:52:07;14.20;99.90
20750;DHT22;10535;50.664;4.564;2023-05-07T03:54:33;14.20;99.90
20750;DHT22;10535;50.664;4.564;2023-05-07T03:56:58;14.10;99.90
20750;DHT22;10535;50.664;4.564;2023-05-07T03:59:24;14.10;99.90
20750;DHT22;10535;50.664;4.564;2023-05-07T04:01:50;14.00;99.90
20750;DHT22;10535;50.664;4.564;2023-05-07T04:04:17;14.10;99.90
20750;DHT22;10535;50.664;4.564;2023-05-07T04:06:45;14.10;99.90
20750;DHT22;10535;50.664;4.564;2023-05-07T04:09:15;14.20;99.90
20750;DHT22;10535;50.664;4.564;2023-05-07T04:11:40;14.00;99.90
20750;DHT22;10535;50.664;4.564;2023-05-07T04:14:10;14.20;99.90
20750;DHT22;10535;50.664;4.564;2023-05-07T04:16:40;14.10;99.90
20750;DHT22;10535;50.664;4.564;2023-05-07T04:19:09;14.30;99.90
20750;DHT22;10535;50.664;4.564;2023-05-07T04:21:35;14.20;99.90
20750;DHT22;10535;50.664;4.564;2023-05-07T04:24:02;14.30;99.90
20750;DHT22;10535;50.664;4.564;2023-05-07T04:26:28;14.30;99.90
20750;DHT22;10535;50.664;4.564;2023-05-07T04:28:54;14.30;99.90
20750;DHT22;10535;50.664;4.564;2023-05-07T04:31:20;14.30;99.90
20750;DHT22;10535;50.664;4.564;2023-05-07T04:33:46;14.30;99.90
20750;DHT22;10535;50.664;4.564;2023-05-07T04:36:12;14.30;99.90
20750;DHT22;10535;50.664;4.564;2023-05-07T04:38:38;14.30;99.90
20750;DHT22;10535;50.664;4.564;2023-05-07T04:41:05;14.30;99.90
20750;DHT22;10535;50.664;4.564;2023-05-07T04:43:31;14.40;99.90
20750;DHT22;10535;50.664;4.564;2023-05-07T04:45:57;14.50;99.90
20750;DHT22;10535;50.664;4.564;2023-05-07T04:48:22;14.70;99.90
20750;DHT22;10535;50.664;4.564;2023-05-07T04:50:49;14.70;99.90
20750;DHT22;10535;50.664;4.564;2023-05-07T04:53:15;14.80;99.90
20750;DHT22;10535;50.664;4.564;2023-05-07T04:55:41;14.70;99.90
20750;DHT22;10535;50.664;4.564;2023-05-07T04:58:07;14.70;99.90
20750;DHT22;10535;50.664;4.564;2023-05-07T05:00:32;14.80;99.90
20750;DHT22;10535;50.664;4.564;2023-05-07T05:03:03;15.00;99.90
20750;DHT22;10535;50.664;4.564;2023-05-07T05:05:28;15.00;99.90
20750;DHT22;10535;50.664;4.564;2023-05-07T05:07:56;15.20;99.90
20750;DHT22;10535;50.664;4.564;2023-05-07T05:10:22;15.30;99.90
20750;DHT22;10535;50.664;4.564;2023-05-07T05:12:52;15.40;99.90
20750;DHT22;10535;50.664;4.564;2023-05-07T05:15:18;15.50;99.90
20750;DHT22;10535;50.664;4.564;2023-05-07T05:17:44;15.60;99.90
20750;DHT22;10535;50.664;4.564;2023-05-07T05:20:10;15.60;99.90
20750;DHT22;10535;50.664;4.564;2023-05-07T05:22:37;15.70;99.90
20750;DHT22;10535;50.664;4.564;2023-05-07T05:25:03;15.70;99.90
20750;DHT22;10535;50.664;4.564;2023-05-07T05:27:28;15.70;99.90
20750;DHT22;10535;50.664;4.564;2023-05-07T05:29:54;15.70;99.90
20750;DHT22;10535;50.664;4.564;2023-05-07T05:32:20;15.80;99.90
20750;DHT22;10535;50.664;4.564;2023-05-07T05:34:47;15.80;99.90
20750;DHT22;10535;50.664;4.564;2023-05-07T05:37:14;16.00;99.90
20750;DHT22;10535;50.664;4.564;2023-05-07T05:39:45;16.00;99.90
20750;DHT22;10535;50.664;4.564;2023-05-07T05:42:10;16.10;99.90
20750;DHT22;10535;50.664;4.564;2023-05-07T05:44:36;16.10;99.90
20750;DHT22;10535;50.664;4.564;2023-05-07T05:47:04;16.30;99.90
20750;DHT22;10535;50.664;4.564;2023-05-07T05:49:30;16.30;99.90
20750;DHT22;10535;50.664;4.564;2023-05-07T05:51:56;16.20;99.90
20750;DHT22;10535;50.664;4.564;2023-05-07T05:54:21;16.30;99.90
20750;DHT22;10535;50.664;4.564;2023-05-07T05:56:47;16.30;99.90
20750;DHT22;10535;50.664;4.564;2023-05-07T05:59:13;16.40;99.90
20750;DHT22;10535;50.664;4.564;2023-05-07T06:01:41;16.30;99.90
20750;DHT22;10535;50.664;4.564;2023-05-07T06:04:07;16.40;99.90
20750;DHT22;10535;50.664;4.564;2023-05-07T06:06:34;16.50;99.90
20750;DHT22;10535;50.664;4.564;2023-05-07T06:08:59;16.50;99.90
20750;DHT22;10535;50.664;4.564;2023-05-07T06:11:25;16.40;99.90
20750;DHT22;10535;50.664;4.564;2023-05-07T06:14:12;16.40;99.90
20750;DHT22;10535;50.664;4.564;2023-05-07T06:17:00;16.30;99.90
20750;DHT22;10535;50.664;4.564;2023-05-07T06:19:26;16.30;99.90
20750;DHT22;10535;50.664;4.564;2023-05-07T06:22:30;16.30;99.90
20750;DHT22;10535;50.664;4.564;2023-05-07T06:30:17;16.60;99.90
20750;DHT22;10535;50.664;4.564;2023-05-07T06:32:43;16.60;99.90
20750;DHT22;10535;50.664;4.564;2023-05-07T06:35:09;16.70;99.90
20750;DHT22;10535;50.664;4.564;2023-05-07T06:37:34;16.80;99.90
20750;DHT22;10535;50.664;4.564;2023-05-07T06:40:00;16.90;99.90
20750;DHT22;10535;50.664;4.564;2023-05-07T06:42:25;16.90;99.90
20750;DHT22;10535;50.664;4.564;2023-05-07T06:44:52;16.90;99.90
20750;DHT22;10535;50.664;4.564;2023-05-07T06:47:18;16.90;99.90
20750;DHT22;10535;50.664;4.564;2023-05-07T06:49:46;16.70;99.90
20750;DHT22;10535;50.664;4.564;2023-05-07T06:52:12;16.80;99.90
20750;DHT22;10535;50.664;4.564;2023-05-07T06:54:38;16.50;99.90
20750;DHT22;10535;50.664;4.564;2023-05-07T06:57:04;16.70;99.90
20750;DHT22;10535;50.664;4.564;2023-05-07T06:59:32;16.40;99.90
20750;DHT22;10535;50.664;4.564;2023-05-07T07:01:58;16.60;99.90
20750;DHT22;10535;50.664;4.564;2023-05-07T07:04:24;16.70;99.90
20750;DHT22;10535;50.664;4.564;2023-05-07T07:06:53;16.80;99.90
20750;DHT22;10535;50.664;4.564;2023-05-07T07:09:19;16.80;99.90
20750;DHT22;10535;50.664;4.564;2023-05-07T07:11:44;17.00;99.90
20750;DHT22;10535;50.664;4.564;2023-05-07T07:14:10;17.20;99.90
20750;DHT22;10535;50.664;4.564;2023-05-07T07:16:37;17.30;99.90
20750;DHT22;10535;50.664;4.564;2023-05-07T07:19:04;17.50;99.90
20750;DHT22;10535;50.664;4.564;2023-05-07T07:21:30;17.50;99.90
20750;DHT22;10535;50.664;4.564;2023-05-07T07:23:56;17.70;99.90
20750;DHT22;10535;50.664;4.564;2023-05-07T07:26:21;17.50;99.90
20750;DHT22;10535;50.664;4.564;2023-05-07T07:28:48;17.50;99.90
20750;DHT22;10535;50.664;4.564;2023-05-07T07:31:14;17.40;99.90
20750;DHT22;10535;50.664;4.564;2023-05-07T07:33:40;17.40;99.90
20750;DHT22;10535;50.664;4.564;2023-05-07T07:36:06;17.30;99.90
20750;DHT22;10535;50.664;4.564;2023-05-07T07:38:33;17.40;99.90
20750;DHT22;10535;50.664;4.564;2023-05-07T07:41:00;17.30;99.90
20750;DHT22;10535;50.664;4.564;2023-05-07T07:43:26;17.50;99.90
20750;DHT22;10535;50.664;4.564;2023-05-07T07:45:53;17.70;99.90
20750;DHT22;10535;50.664;4.564;2023-05-07T07:48:18;17.90;99.90
20750;DHT22;10535;50.664;4.564;2023-05-07T07:50:44;17.90;99.90
20750;DHT22;10535;50.664;4.564;2023-05-07T07:53:17;18.20;99.90
20750;DHT22;10535;50.664;4.564;2023-05-07T07:55:48;18.00;99.90
20750;DHT22;10535;50.664;4.564;2023-05-07T07:58:14;18.30;99.90
20750;DHT22;10535;50.664;4.564;2023-05-07T08:00:39;18.40;99.90
20750;DHT22;10535;50.664;4.564;2023-05-07T08:03:05;18.50;99.90
20750;DHT22;10535;50.664;4.564;2023-05-07T08:05:39;18.60;99.90
20750;DHT22;10535;50.664;4.564;2023-05-07T08:08:05;18.70;99.90
20750;DHT22;10535;50.664;4.564;2023-05-07T08:10:31;18.80;99.90
20750;DHT22;10535;50.664;4.564;2023-05-07T08:13:03;18.70;99.90
20750;DHT22;10535;50.664;4.564;2023-05-07T08:15:29;18.60;99.90
20750;DHT22;10535;50.664;4.564;2023-05-07T08:17:55;18.50;99.90
20750;DHT22;10535;50.664;4.564;2023-05-07T08:20:23;18.20;99.90
20750;DHT22;10535;50.664;4.564;2023-05-07T08:22:48;18.20;99.90
20750;DHT22;10535;50.664;4.564;2023-05-07T08:30:33;18.80;99.90
20750;DHT22;10535;50.664;4.564;2023-05-07T08:33:00;18.80;99.90
20750;DHT22;10535;50.664;4.564;2023-05-07T08:35:25;19.00;99.90
20750;DHT22;10535;50.664;4.564;2023-05-07T08:37:52;18.90;99.90
20750;DHT22;10535;50.664;4.564;2023-05-07T08:40:18;18.90;99.90
20750;DHT22;10535;50.664;4.564;2023-05-07T08:42:44;18.80;99.90
20750;DHT22;10535;50.664;4.564;2023-05-07T08:45:12;18.90;99.90
20750;DHT22;10535;50.664;4.564;2023-05-07T08:47:48;19.10;99.90
20750;DHT22;10535;50.664;4.564;2023-05-07T08:50:16;19.00;99.90
20750;DHT22;10535;50.664;4.564;2023-05-07T08:52:42;19.00;99.90
20750;DHT22;10535;50.664;4.564;2023-05-07T08:55:10;18.90;99.90
20750;DHT22;10535;50.664;4.564;2023-05-07T08:57:35;18.80;99.90
20750;DHT22;10535;50.664;4.564;2023-05-07T09:00:03;18.80;99.90
20750;DHT22;10535;50.664;4.564;2023-05-07T09:02:29;18.40;99.90
20750;DHT22;10535;50.664;4.564;2023-05-07T09:04:55;18.60;99.90
20750;DHT22;10535;50.664;4.564;2023-05-07T09:07:21;18.40;99.90
20750;DHT22;10535;50.664;4.564;2023-05-07T09:09:49;18.50;99.90
20750;DHT22;10535;50.664;4.564;2023-05-07T09:12:15;18.30;99.90
20750;DHT22;10535;50.664;4.564;2023-05-07T09:14:43;18.30;99.90
20750;DHT22;10535;50.664;4.564;2023-05-07T09:17:10;18.30;99.90
20750;DHT22;10535;50.664;4.564;2023-05-07T09:20:05;18.40;99.90
20750;DHT22;10535;50.664;4.564;2023-05-07T09:22:56;18.50;99.90
20750;DHT22;10535;50.664;4.564;2023-05-07T09:25:31;18.40;99.90
20750;DHT22;10535;50.664;4.564;2023-05-07T09:27:58;18.40;99.90
20750;DHT22;10535;50.664;4.564;2023-05-07T09:30:28;18.40;99.90
20750;DHT22;10535;50.664;4.564;2023-05-07T09:33:04;18.50;99.90
20750;DHT22;10535;50.664;4.564;2023-05-07T09:35:30;18.40;99.90
20750;DHT22;10535;50.664;4.564;2023-05-07T09:38:00;18.50;99.90
20750;DHT22;10535;50.664;4.564;2023-05-07T09:40:28;18.70;99.90
20750;DHT22;10535;50.664;4.564;2023-05-07T09:42:54;18.80;99.90
20750;DHT22;10535;50.664;4.564;2023-05-07T09:45:29;18.90;99.90
20750;DHT22;10535;50.664;4.564;2023-05-07T09:47:57;18.90;99.90
20750;DHT22;10535;50.664;4.564;2023-05-07T09:50:28;18.90;99.90
20750;DHT22;10535;50.664;4.564;2023-05-07T09:52:55;18.90;99.90
20750;DHT22;10535;50.664;4.564;2023-05-07T09:55:25;18.90;99.90
20750;DHT22;10535;50.664;4.564;2023-05-07T09:57:53;18.90;99.90
20750;DHT22;10535;50.664;4.564;2023-05-07T10:00:21;18.70;99.90
20750;DHT22;10535;50.664;4.564;2023-05-07T10:02:52;18.70;99.90
20750;DHT22;10535;50.664;4.564;2023-05-07T10:05:19;19.00;99.90
20750;DHT22;10535;50.664;4.564;2023-05-07T10:07:46;19.10;99.90
20750;DHT22;10535;50.664;4.564;2023-05-07T10:10:12;19.30;99.90
20750;DHT22;10535;50.664;4.564;2023-05-07T10:12:38;19.50;99.90
20750;DHT22;10535;50.664;4.564;2023-05-07T10:15:09;19.40;99.90
20750;DHT22;10535;50.664;4.564;2023-05-07T10:17:39;19.50;99.90
20750;DHT22;10535;50.664;4.564;2023-05-07T10:20:08;19.60;99.90
20750;DHT22;10535;50.664;4.564;2023-05-07T10:23:04;19.70;99.90
20750;DHT22;10535;50.664;4.564;2023-05-07T10:25:34;20.10;99.90
20750;DHT22;10535;50.664;4.564;2023-05-07T10:28:06;20.10;99.90
20750;DHT22;10535;50.664;4.564;2023-05-07T10:33:36;20.50;99.90
20750;DHT22;10535;50.664;4.564;2023-05-07T10:36:03;20.50;99.90
20750;DHT22;10535;50.664;4.564;2023-05-07T10:38:31;20.80;99.90
20750;DHT22;10535;50.664;4.564;2023-05-07T10:40:56;20.80;99.90
20750;DHT22;10535;50.664;4.564;2023-05-07T10:43:23;21.00;99.90
20750;DHT22;10535;50.664;4.564;2023-05-07T10:46:16;20.70;99.90
20750;DHT22;10535;50.664;4.564;2023-05-07T10:52:26;21.10;99.90
20750;DHT22;10535;50.664;4.564;2023-05-07T10:57:43;21.40;99.90
20750;DHT22;10535;50.664;4.564;2023-05-07T11:37:46;20.70;99.90
20750;DHT22;10535;50.664;4.564;2023-05-07T11:40:13;20.70;99.90
20750;DHT22;10535;50.664;4.564;2023-05-07T11:42:39;20.80;99.90
20750;DHT22;10535;50.664;4.564;2023-05-07T11:45:07;20.60;99.90
20750;DHT22;10535;50.664;4.564;2023-05-07T11:47:34;20.60;99.90
20750;DHT22;10535;50.664;4.564;2023-05-07T11:50:06;20.90;99.90
20750;DHT22;10535;50.664;4.564;2023-05-07T11:52:33;21.00;99.90
20750;DHT22;10535;50.664;4.564;2023-05-07T11:55:00;21.30;99.90
20750;DHT22;10535;50.664;4.564;2023-05-07T11:57:27;21.50;99.90
20750;DHT22;10535;50.664;4.564;2023-05-07T12:05:09;21.30;99.90
20750;DHT22;10535;50.664;4.564;2023-05-07T12:10:40;21.00;99.90
20750;DHT22;10535;50.664;4.564;2023-05-07T12:13:26;20.70;99.90
20750;DHT22;10535;50.664;4.564;2023-05-07T12:16:18;20.80;99.90
20750;DHT22;10535;50.664;4.564;2023-05-07T12:18:50;21.10;99.90
20750;DHT22;10535;50.664;4.564;2023-05-07T12:21:18;21.30;99.90
20750;DHT22;10535;50.664;4.564;2023-05-07T12:23:44;21.70;99.90
20750;DHT22;10535;50.664;4.564;2023-05-07T12:26:10;21.70;99.90
20750;DHT22;10535;50.664;4.564;2023-05-07T12:28:37;21.60;99.90
20750;DHT22;10535;50.664;4.564;2023-05-07T12:31:04;21.90;99.90
20750;DHT22;10535;50.664;4.564;2023-05-07T12:33:31;21.80;99.90
20750;DHT22;10535;50.664;4.564;2023-05-07T12:35:58;21.90;99.90
20750;DHT22;10535;50.664;4.564;2023-05-07T12:38:37;22.00;99.90
20750;DHT22;10535;50.664;4.564;2023-05-07T12:41:08;22.00;99.90
20750;DHT22;10535;50.664;4.564;2023-05-07T12:43:35;21.60;99.90
20750;DHT22;10535;50.664;4.564;2023-05-07T12:46:04;21.40;99.90
20750;DHT22;10535;50.664;4.564;2023-05-07T12:48:30;21.50;99.90
20750;DHT22;10535;50.664;4.564;2023-05-07T12:50:57;21.60;99.90
20750;DHT22;10535;50.664;4.564;2023-05-07T12:53:27;21.70;99.90
20750;DHT22;10535;50.664;4.564;2023-05-07T12:55:55;21.90;99.90
20750;DHT22;10535;50.664;4.564;2023-05-07T12:58:25;21.90;99.90
20750;DHT22;10535;50.664;4.564;2023-05-07T13:00:52;22.20;99.90
20750;DHT22;10535;50.664;4.564;2023-05-07T13:03:36;22.20;99.90
20750;DHT22;10535;50.664;4.564;2023-05-07T13:06:05;22.20;99.90
20750;DHT22;10535;50.664;4.564;2023-05-07T13:08:33;22.00;99.90
20750;DHT22;10535;50.664;4.564;2023-05-07T13:11:01;21.90;99.90
20750;DHT22;10535;50.664;4.564;2023-05-07T13:13:34;21.70;99.90
20750;DHT22;10535;50.664;4.564;2023-05-07T13:16:01;21.70;99.90
20750;DHT22;10535;50.664;4.564;2023-05-07T13:18:29;21.80;99.90
20750;DHT22;10535;50.664;4.564;2023-05-07T13:20:56;21.60;99.90
20750;DHT22;10535;50.664;4.564;2023-05-07T13:23:22;21.50;99.90
20750;DHT22;10535;50.664;4.564;2023-05-07T13:25:48;21.40;99.90
20750;DHT22;10535;50.664;4.564;2023-05-07T13:28:14;21.40;99.90
20750;DHT22;10535;50.664;4.564;2023-05-07T13:30:40;21.20;99.90
20750;DHT22;10535;50.664;4.564;2023-05-07T13:33:06;21.20;99.90
20750;DHT22;10535;50.664;4.564;2023-05-07T13:35:32;21.20;99.90
20750;DHT22;10535;50.664;4.564;2023-05-07T13:37:58;21.30;99.90
20750;DHT22;10535;50.664;4.564;2023-05-07T13:40:24;21.40;99.90
20750;DHT22;10535;50.664;4.564;2023-05-07T13:42:50;21.30;99.90
20750;DHT22;10535;50.664;4.564;2023-05-07T13:45:17;21.30;99.90
20750;DHT22;10535;50.664;4.564;2023-05-07T13:48:02;21.20;99.90
20750;DHT22;10535;50.664;4.564;2023-05-07T13:51:07;21.10;99.90
20750;DHT22;10535;50.664;4.564;2023-05-07T13:53:33;21.10;99.90
20750;DHT22;10535;50.664;4.564;2023-05-07T13:55:59;21.10;99.90
20750;DHT22;10535;50.664;4.564;2023-05-07T13:58:25;21.10;99.90
20750;DHT22;10535;50.664;4.564;2023-05-07T14:00:54;21.10;99.90
20750;DHT22;10535;50.664;4.564;2023-05-07T14:03:21;20.90;99.90
20750;DHT22;10535;50.664;4.564;2023-05-07T14:05:48;20.90;99.90
20750;DHT22;10535;50.664;4.564;2023-05-07T14:08:37;21.20;99.90
20750;DHT22;10535;50.664;4.564;2023-05-07T14:11:25;21.00;99.90
20750;DHT22;10535;50.664;4.564;2023-05-07T14:13:54;21.00;99.90
20750;DHT22;10535;50.664;4.564;2023-05-07T14:26:41;21.00;99.90
20750;DHT22;10535;50.664;4.564;2023-05-07T14:32:04;20.70;99.90
20750;DHT22;10535;50.664;4.564;2023-05-07T14:34:31;21.00;99.90
20750;DHT22;10535;50.664;4.564;2023-05-07T14:37:01;20.80;99.90
20750;DHT22;10535;50.664;4.564;2023-05-07T15:00:08;20.30;99.90
20750;DHT22;10535;50.664;4.564;2023-05-07T15:02:39;20.30;99.90
20750;DHT22;10535;50.664;4.564;2023-05-07T15:42:22;20.80;99.90
20750;DHT22;10535;50.664;4.564;2023-05-07T15:44:48;20.90;99.90
20750;DHT22;10535;50.664;4.564;2023-05-07T15:47:14;20.90;99.90
20750;DHT22;10535;50.664;4.564;2023-05-07T15:49:48;20.90;99.90
20750;DHT22;10535;50.664;4.564;2023-05-07T15:52:14;21.00;99.90
20750;DHT22;10535;50.664;4.564;2023-05-07T15:54:51;20.80;99.90
20750;DHT22;10535;50.664;4.564;2023-05-07T15:57:24;21.10;99.90
20750;DHT22;10535;50.664;4.564;2023-05-07T19:43:00;17.60;99.90
20750;DHT22;10535;50.664;4.564;2023-05-07T19:45:56;17.60;99.90
20750;DHT22;10535;50.664;4.564;2023-05-07T19:48:28;17.60;99.90
20750;DHT22;10535;50.664;4.564;2023-05-07T19:51:22;17.60;99.90
20750;DHT22;10535;50.664;4.564;2023-05-07T20:31:49;17.10;99.90
20750;DHT22;10535;50.664;4.564;2023-05-07T20:45:38;17.00;99.90
20750;DHT22;10535;50.664;4.564;2023-05-07T22:11:27;16.30;99.90
20750;DHT22;10535;50.664;4.564;2023-05-07T22:14:42;16.20;99.90
